Queen Of Burnaby — VCVV — position and weather

sailwx.info

Track history (hours):
 
Tides and Currents Weather Stations Pressure Air Temp Water Temp Dewpoint Dewpoint Depression Visibility Wind Speed Wind Dir Waves Ship Positions

Queen Of Burnaby

Last reported at 2016-May-24 04:34 UTC. Time now 2016-May-24 08:00 UTC.
Position N 49°47' W 124°46'.

Length 130 m; draft 4 m.

Type: Passenger vessel. MMSI: 316001246.

Date/timePositionNaut miles runAvg speedWind from/ knotsBaromVisibWave heightAir tempDewpointWater temp
2016-May-24 04:34N 49°47' W 124°46'9 9.4
2016-May-24 03:33N 49°50' W 124°32'1313.2
2016-May-24 02:34N 49°46' W 124°51'3 3.0
2016-May-24 01:33N 49°44' W 124°55'1312.8
2016-May-24 00:33N 49°49' W 124°37'3 3.2
2016-May-23 23:32N 49°50' W 124°32'1413.9
2016-May-23 22:33N 49°45' W 124°52'2 1.0
2016-May-23 20:17N 49°44' W 124°55'1013.2
2016-May-23 19:33N 49°48' W 124°41'7 6.6
2016-May-23 18:33N 49°50' W 124°32'10 9.9
2016-May-23 17:33N 49°47' W 124°46'6 6.2
2016-May-23 16:32N 49°44' W 124°55'1111.2
2016-May-23 15:34N 49°48' W 124°40'4 4.1
2016-May-23 14:33N 49°50' W 124°34'1313.4
2016-May-23 13:33N 49°45' W 124°53'8 0.9
2016-May-23 04:33N 49°48' W 124°41'5 5.3
2016-May-23 03:33N 49°50' W 124°34'1211.9
2016-May-23 02:33N 49°46' W 124°51'3 3.3
2016-May-23 01:33N 49°44' W 124°55'1212.4
2016-May-23 00:34N 49°49' W 124°38'4 3.6
2016-May-22 23:33N 49°50' W 124°32'1413.5
2016-May-22 22:32N 49°45' W 124°52'2 2.2
2016-May-22 21:27N 49°44' W 124°55'0 0.0
2016-May-22 20:18N 49°44' W 124°55'810.1
2016-May-22 19:33N 49°47' W 124°45'9 8.7
2016-May-22 18:33N 49°50' W 124°32'1010.5
2016-May-22 17:34N 49°47' W 124°47'6 5.8
2016-May-22 16:33N 49°44' W 124°55'1111.4
2016-May-22 15:33N 49°48' W 124°39'3 3.0
2016-May-22 14:33N 49°50' W 124°35'1312.7
2016-May-22 13:33N 49°45' W 124°53'2 1.6
2016-May-22 12:30N 49°44' W 124°55'0 0.0
2016-May-22 11:33N 49°44' W 124°55'0 0.0
2016-May-22 10:33N 49°44' W 124°55'0 0.0
2016-May-22 09:27N 49°44' W 124°55'0 0.0
2016-May-22 08:33N 49°44' W 124°55'0 0.0
2016-May-22 07:33N 49°44' W 124°55'0 0.0
2016-May-22 06:21N 49°44' W 124°55'0 0.0
2016-May-22 05:27N 49°44' W 124°55'5 6.0
2016-May-22 04:33N 49°47' W 124°48'1111.0
2016-May-22 03:33N 49°50' W 124°32'8 7.9
2016-May-22 02:33N 49°48' W 124°44'8 4.1
2016-May-22 00:30N 49°44' W 124°55'0 0.0
2016-May-21 23:18N 49°44' W 124°55'0 0.0
2016-May-21 22:30N 49°44' W 124°55'0 0.0
2016-May-21 21:06N 49°44' W 124°55'0 0.0
2016-May-21 20:10N 49°44' W 124°55'813.2
2016-May-21 19:34N 49°47' W 124°44'8 8.1
2016-May-21 18:33N 49°50' W 124°32'1111.0
2016-May-21 17:33N 49°46' W 124°48'5 5.2
2016-May-21 16:33N 49°44' W 124°55'1111.3
2016-May-21 15:33N 49°48' W 124°39'4 4.2
2016-May-21 14:33N 49°50' W 124°33'1514.3
2016-May-21 13:32N 49°45' W 124°54'1 0.9
2016-May-21 12:31N 49°44' W 124°55'0 0.0
2016-May-21 11:25N 49°44' W 124°55'0 0.0
2016-May-21 10:31N 49°44' W 124°55'0 0.0
2016-May-21 09:34N 49°44' W 124°55'0 0.0
2016-May-21 08:31N 49°44' W 124°55'0 0.0
2016-May-21 07:31N 49°44' W 124°55'0 0.0
2016-May-21 06:31N 49°44' W 124°55'0 0.0
2016-May-21 05:22N 49°44' W 124°55'1012.2
2016-May-21 04:34N 49°48' W 124°41'5 5.1
2016-May-21 03:33N 49°50' W 124°34'1514.3
2016-May-21 02:32N 49°45' W 124°55'0 0.3
2016-May-21 01:31N 49°44' W 124°55'1313.4
2016-May-21 00:33N 49°49' W 124°37'3 3.2
2016-May-20 23:33N 49°50' W 124°32'1414.2
2016-May-20 22:33N 49°45' W 124°53'2 0.8
2016-May-20 20:21N 49°44' W 124°55'1113.3
2016-May-20 19:33N 49°48' W 124°40'6 5.7
2016-May-20 18:33N 49°50' W 124°32'1212.0
2016-May-20 17:33N 49°46' W 124°49'4 4.2
2016-May-20 16:34N 49°44' W 124°55'1111.2
2016-May-20 15:34N 49°48' W 124°39'5 4.8
2016-May-20 14:33N 49°50' W 124°32'1414.1
2016-May-20 13:33N 49°45' W 124°53'2 1.9
2016-May-20 12:33N 49°44' W 124°55'0 0.0
2016-May-20 11:33N 49°44' W 124°55'0 0.0
2016-May-20 10:33N 49°44' W 124°55'0 0.0
2016-May-20 09:33N 49°44' W 124°55'0 0.0
2016-May-20 08:33N 49°44' W 124°55'0 0.0
2016-May-20 07:30N 49°44' W 124°55'0 0.0
2016-May-20 06:24N 49°44' W 124°55'7 3.7
2016-May-20 04:33N 49°47' W 124°45'9 9.2
2016-May-20 03:34N 49°50' W 124°32'1414.4
2016-May-20 02:33N 49°45' W 124°53'2 1.6
2016-May-20 01:33N 49°44' W 124°55'1413.5
2016-May-20 00:33N 49°49' W 124°36'2 2.3
2016-May-19 23:34N 49°50' W 124°33'1414.2
2016-May-19 22:34N 49°45' W 124°53'2 1.5
2016-May-19 21:31N 49°44' W 124°55'0 0.0
2016-May-19 20:31N 49°44' W 124°55'7 7.6
2016-May-19 19:33N 49°47' W 124°45'9 8.9
2016-May-19 18:33N 49°50' W 124°32'1010.1
2016-May-19 17:34N 49°47' W 124°47'6 6.1
2016-May-19 16:33N 49°44' W 124°55'1212.4
2016-May-19 15:33N 49°49' W 124°37'2 2.4
2016-May-19 14:34N 49°50' W 124°34'1414.0
2016-May-19 13:33N 49°45' W 124°54'1 0.6
2016-May-19 12:29N 49°44' W 124°55'0 0.0
2016-May-19 11:29N 49°44' W 124°55'0 0.0
2016-May-19 10:26N 49°44' W 124°55'0 0.0
2016-May-19 09:32N 49°44' W 124°55'0 0.0
2016-May-19 08:29N 49°44' W 124°55'0 0.0
2016-May-19 07:32N 49°44' W 124°55'0 0.0
2016-May-19 06:33N 49°44' W 124°55'5 2.5
2016-May-19 04:33N 49°47' W 124°48'1111.0
2016-May-19 03:33N 49°50' W 124°32'9 9.2
2016-May-19 02:33N 49°47' W 124°45'7 5.9
2016-May-19 01:20N 49°44' W 124°55'0 0.0
2016-May-19 00:29N 49°44' W 124°55'0 0.0
2016-May-18 23:32N 49°44' W 124°55'0 0.0
2016-May-18 22:26N 49°44' W 124°55'0 0.0
2016-May-18 21:32N 49°44' W 124°55'0 0.0
2016-May-18 20:29N 49°44' W 124°55'7 7.8
2016-May-18 19:34N 49°48' W 124°46'9 9.2
2016-May-18 18:33N 49°50' W 124°32'10 9.8
2016-May-18 17:33N 49°47' W 124°46'6 6.4
2016-May-18 16:33N 49°44' W 124°55'1111.3
2016-May-18 15:33N 49°48' W 124°39'3 3.3
2016-May-18 14:34N 49°50' W 124°35'1313.3
2016-May-18 13:34N 49°45' W 124°54'1 0.9
2016-May-18 12:04N 49°44' W 124°55'0 0.0
2016-May-18 11:28N 49°44' W 124°55'0 0.0
2016-May-18 10:19N 49°44' W 124°55'0 0.0
2016-May-18 09:31N 49°44' W 124°55'0 0.0
2016-May-18 08:28N 49°44' W 124°55'0 0.0
2016-May-18 07:31N 49°44' W 124°55'0 0.0
2016-May-18 06:31N 49°44' W 124°55'2 2.4
2016-May-18 05:34N 49°46' W 124°52'1413.5
2016-May-18 04:32N 49°50' W 124°32'1111.0
2016-May-18 03:33N 49°46' W 124°47'4 4.3
2016-May-18 02:34N 49°45' W 124°54'1110.9
2016-May-18 01:33N 49°48' W 124°37'4 4.0
2016-May-18 00:31N 49°50' W 124°32'4 4.4
2016-May-17 23:33N 49°48' W 124°37'1010.0
2016-May-17 22:33N 49°45' W 124°52'2 2.2
2016-May-17 21:30N 49°44' W 124°55'0 0.0
2016-May-17 20:33N 49°44' W 124°55'7 7.3
2016-May-17 19:33N 49°47' W 124°45'9 8.9
2016-May-17 18:33N 49°50' W 124°32'1010.1
2016-May-17 17:33N 49°46' W 124°46'6 6.2
2016-May-17 16:33N 49°44' W 124°55'1211.8
2016-May-17 15:33N 49°49' W 124°38'3 3.4
2016-May-17 14:33N 49°50' W 124°34'1313.4
2016-May-17 13:34N 49°45' W 124°53'2 1.9
2016-May-17 12:33N 49°44' W 124°55'0 0.0
2016-May-17 11:33N 49°44' W 124°55'0 0.0
2016-May-17 10:33N 49°44' W 124°55'0 0.0
2016-May-17 09:33N 49°44' W 124°55'0 0.0
2016-May-17 08:33N 49°44' W 124°55'0 0.0
2016-May-17 07:33N 49°44' W 124°55'0 0.0
2016-May-17 06:33N 49°44' W 124°55'5 2.5
2016-May-17 04:34N 49°47' W 124°49'1111.3
2016-May-17 03:33N 49°50' W 124°32'1312.6
2016-May-17 02:33N 49°46' W 124°50'4 3.6
2016-May-17 01:33N 49°44' W 124°55'1212.0
2016-May-17 00:33N 49°48' W 124°38'4 4.1
2016-May-16 23:33N 49°50' W 124°32'1413.6
2016-May-16 22:33N 49°45' W 124°52'2 2.1
2016-May-16 21:25N 49°44' W 124°55'0 0.0
2016-May-16 20:31N 49°44' W 124°55'7 7.7
2016-May-16 19:34N 49°47' W 124°45'9 8.8
2016-May-16 18:33N 49°50' W 124°32'10 9.9
2016-May-16 17:33N 49°47' W 124°46'6 6.4
2016-May-16 16:33N 49°44' W 124°55'1211.9
2016-May-16 15:33N 49°49' W 124°38'3 3.4
2016-May-16 14:33N 49°50' W 124°33'1414.2
2016-May-16 13:33N 49°45' W 124°54'1 1.0
2016-May-16 12:33N 49°44' W 124°55'0 0.0
2016-May-16 11:33N 49°44' W 124°55'0 0.0
2016-May-16 10:33N 49°44' W 124°55'0 0.0
2016-May-16 09:33N 49°44' W 124°55'0 0.0
2016-May-16 08:33N 49°44' W 124°55'0 0.0
2016-May-16 07:33N 49°44' W 124°55'0 0.0
2016-May-16 06:33N 49°44' W 124°55'0 0.0
2016-May-16 05:33N 49°44' W 124°55'7 6.8
2016-May-16 04:33N 49°47' W 124°46'9 9.4
2016-May-16 03:34N 49°50' W 124°32'1313.2
2016-May-16 02:33N 49°46' W 124°51'3 3.0
2016-May-16 01:33N 49°44' W 124°55'1312.9
2016-May-16 00:34N 49°49' W 124°37'3 3.3
2016-May-15 23:33N 49°50' W 124°32'1313.2
2016-May-15 22:33N 49°46' W 124°51'3 2.8
2016-May-15 21:31N 49°44' W 124°55'0 0.0
2016-May-15 20:31N 49°44' W 124°55'7 7.3
2016-May-15 19:33N 49°47' W 124°46'9 8.8
2016-May-15 18:30N 49°50' W 124°32'1010.5
2016-May-15 17:33N 49°47' W 124°46'6 6.2
2016-May-15 16:33N 49°44' W 124°55'1010.4
2016-May-15 15:33N 49°48' W 124°40'5 5.0
2016-May-15 14:33N 49°50' W 124°33'1313.4
2016-May-15 13:33N 49°45' W 124°53'2 0.3
2016-May-15 07:32N 49°44' W 124°55'0 0.0
2016-May-15 06:08N 49°44' W 124°55'5 3.5
2016-May-15 04:33N 49°47' W 124°48'1110.8
2016-May-15 03:33N 49°50' W 124°32'9 8.8
2016-May-15 02:33N 49°47' W 124°45'7 7.4
2016-May-15 01:33N 49°44' W 124°55'0 0.0
2016-May-15 00:33N 49°44' W 124°55'0 0.0
2016-May-14 23:32N 49°44' W 124°55'0 0.0
2016-May-14 22:32N 49°44' W 124°55'0 0.0
2016-May-14 21:32N 49°44' W 124°55'0 0.0
2016-May-14 20:32N 49°44' W 124°55'8 8.0
2016-May-14 19:33N 49°47' W 124°44'8 8.2
2016-May-14 18:32N 49°50' W 124°32'1010.1
2016-May-14 17:33N 49°47' W 124°46'6 6.4
2016-May-14 16:33N 49°44' W 124°55'1110.7
2016-May-14 15:33N 49°48' W 124°40'5 4.7
2016-May-14 14:33N 49°50' W 124°34'1313.4
2016-May-14 13:33N 49°45' W 124°53'2 1.8
2016-May-14 12:29N 49°44' W 124°55'0 0.0
2016-May-14 11:29N 49°44' W 124°55'0 0.0
2016-May-14 10:32N 49°44' W 124°55'0 0.0
2016-May-14 09:32N 49°44' W 124°55'0 0.0
2016-May-14 08:32N 49°44' W 124°55'0 0.0
2016-May-14 07:32N 49°44' W 124°55'0 0.0
2016-May-14 06:32N 49°44' W 124°55'0 0.0
2016-May-14 05:32N 49°44' W 124°55'  
Track history (hours):
 
Tides and Currents Weather Stations Pressure Air Temp Water Temp Dewpoint Dewpoint Depression Visibility Wind Speed Wind Dir Waves Ship Positions

Queen Of Burnaby

Last reported at 2016-May-24 04:34 UTC. Time now 2016-May-24 08:00 UTC.
Position N 49°47' W 124°46'.

Length 130 m; draft 4 m.

Type: Passenger vessel. MMSI: 316001246.

Date/timePositionNaut miles runAvg speedWind from/ knotsBaromVisibWave heightAir tempDewpointWater temp
2016-May-24 04:34N 49°47' W 124°46'9 9.4
2016-May-24 03:33N 49°50' W 124°32'1313.2
2016-May-24 02:34N 49°46' W 124°51'3 3.0
2016-May-24 01:33N 49°44' W 124°55'1312.8
2016-May-24 00:33N 49°49' W 124°37'3 3.2
2016-May-23 23:32N 49°50' W 124°32'1413.9
2016-May-23 22:33N 49°45' W 124°52'2 1.0
2016-May-23 20:17N 49°44' W 124°55'1013.2
2016-May-23 19:33N 49°48' W 124°41'7 6.6
2016-May-23 18:33N 49°50' W 124°32'10 9.9
2016-May-23 17:33N 49°47' W 124°46'6 6.2
2016-May-23 16:32N 49°44' W 124°55'1111.2
2016-May-23 15:34N 49°48' W 124°40'4 4.1
2016-May-23 14:33N 49°50' W 124°34'1313.4
2016-May-23 13:33N 49°45' W 124°53'8 0.9
2016-May-23 04:33N 49°48' W 124°41'5 5.3
2016-May-23 03:33N 49°50' W 124°34'1211.9
2016-May-23 02:33N 49°46' W 124°51'3 3.3
2016-May-23 01:33N 49°44' W 124°55'1212.4
2016-May-23 00:34N 49°49' W 124°38'4 3.6
2016-May-22 23:33N 49°50' W 124°32'1413.5
2016-May-22 22:32N 49°45' W 124°52'2 2.2
2016-May-22 21:27N 49°44' W 124°55'0 0.0
2016-May-22 20:18N 49°44' W 124°55'810.1
2016-May-22 19:33N 49°47' W 124°45'9 8.7
2016-May-22 18:33N 49°50' W 124°32'1010.5
2016-May-22 17:34N 49°47' W 124°47'6 5.8
2016-May-22 16:33N 49°44' W 124°55'1111.4
2016-May-22 15:33N 49°48' W 124°39'3 3.0
2016-May-22 14:33N 49°50' W 124°35'1312.7
2016-May-22 13:33N 49°45' W 124°53'2 1.6
2016-May-22 12:30N 49°44' W 124°55'0 0.0
2016-May-22 11:33N 49°44' W 124°55'0 0.0
2016-May-22 10:33N 49°44' W 124°55'0 0.0
2016-May-22 09:27N 49°44' W 124°55'0 0.0
2016-May-22 08:33N 49°44' W 124°55'0 0.0
2016-May-22 07:33N 49°44' W 124°55'0 0.0
2016-May-22 06:21N 49°44' W 124°55'0 0.0
2016-May-22 05:27N 49°44' W 124°55'5 6.0
2016-May-22 04:33N 49°47' W 124°48'1111.0
2016-May-22 03:33N 49°50' W 124°32'8 7.9
2016-May-22 02:33N 49°48' W 124°44'8 4.1
2016-May-22 00:30N 49°44' W 124°55'0 0.0
2016-May-21 23:18N 49°44' W 124°55'0 0.0
2016-May-21 22:30N 49°44' W 124°55'0 0.0
2016-May-21 21:06N 49°44' W 124°55'0 0.0
2016-May-21 20:10N 49°44' W 124°55'813.2
2016-May-21 19:34N 49°47' W 124°44'8 8.1
2016-May-21 18:33N 49°50' W 124°32'1111.0
2016-May-21 17:33N 49°46' W 124°48'5 5.2
2016-May-21 16:33N 49°44' W 124°55'1111.3
2016-May-21 15:33N 49°48' W 124°39'4 4.2
2016-May-21 14:33N 49°50' W 124°33'1514.3
2016-May-21 13:32N 49°45' W 124°54'1 0.9
2016-May-21 12:31N 49°44' W 124°55'0 0.0
2016-May-21 11:25N 49°44' W 124°55'0 0.0
2016-May-21 10:31N 49°44' W 124°55'0 0.0
2016-May-21 09:34N 49°44' W 124°55'0 0.0
2016-May-21 08:31N 49°44' W 124°55'0 0.0
2016-May-21 07:31N 49°44' W 124°55'0 0.0
2016-May-21 06:31N 49°44' W 124°55'0 0.0
2016-May-21 05:22N 49°44' W 124°55'1012.2
2016-May-21 04:34N 49°48' W 124°41'5 5.1
2016-May-21 03:33N 49°50' W 124°34'1514.3
2016-May-21 02:32N 49°45' W 124°55'0 0.3
2016-May-21 01:31N 49°44' W 124°55'1313.4
2016-May-21 00:33N 49°49' W 124°37'3 3.2
2016-May-20 23:33N 49°50' W 124°32'1414.2
2016-May-20 22:33N 49°45' W 124°53'2 0.8
2016-May-20 20:21N 49°44' W 124°55'1113.3
2016-May-20 19:33N 49°48' W 124°40'6 5.7
2016-May-20 18:33N 49°50' W 124°32'1212.0
2016-May-20 17:33N 49°46' W 124°49'4 4.2
2016-May-20 16:34N 49°44' W 124°55'1111.2
2016-May-20 15:34N 49°48' W 124°39'5 4.8
2016-May-20 14:33N 49°50' W 124°32'1414.1
2016-May-20 13:33N 49°45' W 124°53'2 1.9
2016-May-20 12:33N 49°44' W 124°55'0 0.0
2016-May-20 11:33N 49°44' W 124°55'0 0.0
2016-May-20 10:33N 49°44' W 124°55'0 0.0
2016-May-20 09:33N 49°44' W 124°55'0 0.0
2016-May-20 08:33N 49°44' W 124°55'0 0.0
2016-May-20 07:30N 49°44' W 124°55'0 0.0
2016-May-20 06:24N 49°44' W 124°55'7 3.7
2016-May-20 04:33N 49°47' W 124°45'9 9.2
2016-May-20 03:34N 49°50' W 124°32'1414.4
2016-May-20 02:33N 49°45' W 124°53'2 1.6
2016-May-20 01:33N 49°44' W 124°55'1413.5
2016-May-20 00:33N 49°49' W 124°36'2 2.3
2016-May-19 23:34N 49°50' W 124°33'1414.2
2016-May-19 22:34N 49°45' W 124°53'2 1.5
2016-May-19 21:31N 49°44' W 124°55'0 0.0
2016-May-19 20:31N 49°44' W 124°55'7 7.6
2016-May-19 19:33N 49°47' W 124°45'9 8.9
2016-May-19 18:33N 49°50' W 124°32'1010.1
2016-May-19 17:34N 49°47' W 124°47'6 6.1
2016-May-19 16:33N 49°44' W 124°55'1212.4
2016-May-19 15:33N 49°49' W 124°37'2 2.4
2016-May-19 14:34N 49°50' W 124°34'1414.0
2016-May-19 13:33N 49°45' W 124°54'1 0.6
2016-May-19 12:29N 49°44' W 124°55'0 0.0
2016-May-19 11:29N 49°44' W 124°55'0 0.0
2016-May-19 10:26N 49°44' W 124°55'0 0.0
2016-May-19 09:32N 49°44' W 124°55'0 0.0
2016-May-19 08:29N 49°44' W 124°55'0 0.0
2016-May-19 07:32N 49°44' W 124°55'0 0.0
2016-May-19 06:33N 49°44' W 124°55'5 2.5
2016-May-19 04:33N 49°47' W 124°48'1111.0
2016-May-19 03:33N 49°50' W 124°32'9 9.2
2016-May-19 02:33N 49°47' W 124°45'7 5.9
2016-May-19 01:20N 49°44' W 124°55'0 0.0
2016-May-19 00:29N 49°44' W 124°55'0 0.0
2016-May-18 23:32N 49°44' W 124°55'0 0.0
2016-May-18 22:26N 49°44' W 124°55'0 0.0
2016-May-18 21:32N 49°44' W 124°55'0 0.0
2016-May-18 20:29N 49°44' W 124°55'7 7.8
2016-May-18 19:34N 49°48' W 124°46'9 9.2
2016-May-18 18:33N 49°50' W 124°32'10 9.8
2016-May-18 17:33N 49°47' W 124°46'6 6.4
2016-May-18 16:33N 49°44' W 124°55'1111.3
2016-May-18 15:33N 49°48' W 124°39'3 3.3
2016-May-18 14:34N 49°50' W 124°35'1313.3
2016-May-18 13:34N 49°45' W 124°54'1 0.9
2016-May-18 12:04N 49°44' W 124°55'0 0.0
2016-May-18 11:28N 49°44' W 124°55'0 0.0
2016-May-18 10:19N 49°44' W 124°55'0 0.0
2016-May-18 09:31N 49°44' W 124°55'0 0.0
2016-May-18 08:28N 49°44' W 124°55'0 0.0
2016-May-18 07:31N 49°44' W 124°55'0 0.0
2016-May-18 06:31N 49°44' W 124°55'2 2.4
2016-May-18 05:34N 49°46' W 124°52'1413.5
2016-May-18 04:32N 49°50' W 124°32'1111.0
2016-May-18 03:33N 49°46' W 124°47'4 4.3
2016-May-18 02:34N 49°45' W 124°54'1110.9
2016-May-18 01:33N 49°48' W 124°37'4 4.0
2016-May-18 00:31N 49°50' W 124°32'4 4.4
2016-May-17 23:33N 49°48' W 124°37'1010.0
2016-May-17 22:33N 49°45' W 124°52'2 2.2
2016-May-17 21:30N 49°44' W 124°55'0 0.0
2016-May-17 20:33N 49°44' W 124°55'7 7.3
2016-May-17 19:33N 49°47' W 124°45'9 8.9
2016-May-17 18:33N 49°50' W 124°32'1010.1
2016-May-17 17:33N 49°46' W 124°46'6 6.2
2016-May-17 16:33N 49°44' W 124°55'1211.8
2016-May-17 15:33N 49°49' W 124°38'3 3.4
2016-May-17 14:33N 49°50' W 124°34'1313.4
2016-May-17 13:34N 49°45' W 124°53'2 1.9
2016-May-17 12:33N 49°44' W 124°55'0 0.0
2016-May-17 11:33N 49°44' W 124°55'0 0.0
2016-May-17 10:33N 49°44' W 124°55'0 0.0
2016-May-17 09:33N 49°44' W 124°55'0 0.0
2016-May-17 08:33N 49°44' W 124°55'0 0.0
2016-May-17 07:33N 49°44' W 124°55'0 0.0
2016-May-17 06:33N 49°44' W 124°55'5 2.5
2016-May-17 04:34N 49°47' W 124°49'1111.3
2016-May-17 03:33N 49°50' W 124°32'1312.6
2016-May-17 02:33N 49°46' W 124°50'4 3.6
2016-May-17 01:33N 49°44' W 124°55'1212.0
2016-May-17 00:33N 49°48' W 124°38'4 4.1
2016-May-16 23:33N 49°50' W 124°32'1413.6
2016-May-16 22:33N 49°45' W 124°52'2 2.1
2016-May-16 21:25N 49°44' W 124°55'0 0.0
2016-May-16 20:31N 49°44' W 124°55'7 7.7
2016-May-16 19:34N 49°47' W 124°45'9 8.8
2016-May-16 18:33N 49°50' W 124°32'10 9.9
2016-May-16 17:33N 49°47' W 124°46'6 6.4
2016-May-16 16:33N 49°44' W 124°55'1211.9
2016-May-16 15:33N 49°49' W 124°38'3 3.4
2016-May-16 14:33N 49°50' W 124°33'1414.2
2016-May-16 13:33N 49°45' W 124°54'1 1.0
2016-May-16 12:33N 49°44' W 124°55'0 0.0
2016-May-16 11:33N 49°44' W 124°55'0 0.0
2016-May-16 10:33N 49°44' W 124°55'0 0.0
2016-May-16 09:33N 49°44' W 124°55'0 0.0
2016-May-16 08:33N 49°44' W 124°55'0 0.0
2016-May-16 07:33N 49°44' W 124°55'0 0.0
2016-May-16 06:33N 49°44' W 124°55'0 0.0
2016-May-16 05:33N 49°44' W 124°55'7 6.8
2016-May-16 04:33N 49°47' W 124°46'9 9.4
2016-May-16 03:34N 49°50' W 124°32'1313.2
2016-May-16 02:33N 49°46' W 124°51'3 3.0
2016-May-16 01:33N 49°44' W 124°55'1312.9
2016-May-16 00:34N 49°49' W 124°37'3 3.3
2016-May-15 23:33N 49°50' W 124°32'1313.2
2016-May-15 22:33N 49°46' W 124°51'3 2.8
2016-May-15 21:31N 49°44' W 124°55'0 0.0
2016-May-15 20:31N 49°44' W 124°55'7 7.3
2016-May-15 19:33N 49°47' W 124°46'9 8.8
2016-May-15 18:30N 49°50' W 124°32'1010.5
2016-May-15 17:33N 49°47' W 124°46'6 6.2
2016-May-15 16:33N 49°44' W 124°55'1010.4
2016-May-15 15:33N 49°48' W 124°40'5 5.0
2016-May-15 14:33N 49°50' W 124°33'1313.4
2016-May-15 13:33N 49°45' W 124°53'2 0.3
2016-May-15 07:32N 49°44' W 124°55'0 0.0
2016-May-15 06:08N 49°44' W 124°55'5 3.5
2016-May-15 04:33N 49°47' W 124°48'1110.8
2016-May-15 03:33N 49°50' W 124°32'9 8.8
2016-May-15 02:33N 49°47' W 124°45'7 7.4
2016-May-15 01:33N 49°44' W 124°55'0 0.0
2016-May-15 00:33N 49°44' W 124°55'0 0.0
2016-May-14 23:32N 49°44' W 124°55'0 0.0
2016-May-14 22:32N 49°44' W 124°55'0 0.0
2016-May-14 21:32N 49°44' W 124°55'0 0.0
2016-May-14 20:32N 49°44' W 124°55'8 8.0
2016-May-14 19:33N 49°47' W 124°44'8 8.2
2016-May-14 18:32N 49°50' W 124°32'1010.1
2016-May-14 17:33N 49°47' W 124°46'6 6.4
2016-May-14 16:33N 49°44' W 124°55'1110.7
2016-May-14 15:33N 49°48' W 124°40'5 4.7
2016-May-14 14:33N 49°50' W 124°34'1313.4
2016-May-14 13:33N 49°45' W 124°53'2 1.8
2016-May-14 12:29N 49°44' W 124°55'0 0.0
2016-May-14 11:29N 49°44' W 124°55'0 0.0
2016-May-14 10:32N 49°44' W 124°55'0 0.0
2016-May-14 09:32N 49°44' W 124°55'0 0.0
2016-May-14 08:32N 49°44' W 124°55'0 0.0
2016-May-14 07:32N 49°44' W 124°55'0 0.0
2016-May-14 06:32N 49°44' W 124°55'0 0.0
2016-May-14 05:32N 49°44' W 124°55'  

Dump ship's entire track history